createdAt,value
2023-04-16T00:01:27.827Z,8.90
2023-04-16T00:03:55.674Z,9.00
2023-04-16T00:06:23.212Z,9.00
2023-04-16T00:08:51.493Z,8.90
2023-04-16T00:11:18.317Z,8.90
2023-04-16T00:13:44.867Z,8.80
2023-04-16T00:16:11.494Z,8.90
2023-04-16T00:18:38.264Z,8.90
2023-04-16T00:21:05.512Z,8.80
2023-04-16T00:23:32.286Z,8.80
2023-04-16T00:26:00.132Z,8.90
2023-04-16T00:28:27.630Z,8.90
2023-04-16T00:30:55.027Z,8.90
2023-04-16T00:33:22.514Z,8.90
2023-04-16T00:35:49.485Z,8.90
2023-04-16T00:38:16.554Z,8.90
2023-04-16T00:40:43.394Z,8.90
2023-04-16T00:43:10.154Z,8.90
2023-04-16T00:45:37.139Z,8.90
2023-04-16T00:48:04.727Z,8.90
2023-04-16T00:50:31.635Z,8.90
2023-04-16T00:52:58.261Z,8.80
2023-04-16T00:55:25.172Z,8.80
2023-04-16T00:57:51.732Z,8.80
2023-04-16T01:00:20.275Z,8.80
2023-04-16T01:02:47.025Z,8.90
2023-04-16T01:05:13.695Z,8.90
2023-04-16T01:07:40.338Z,8.80
2023-04-16T01:10:07.491Z,8.90
2023-04-16T01:12:34.085Z,8.90
2023-04-16T01:15:00.842Z,8.80
2023-04-16T01:17:27.478Z,8.80
2023-04-16T01:19:54.088Z,8.80
2023-04-16T01:22:20.818Z,8.90
2023-04-16T01:24:47.414Z,8.80
2023-04-16T01:27:14.013Z,8.80
2023-04-16T01:29:40.802Z,8.80
2023-04-16T01:32:07.529Z,8.80
2023-04-16T01:34:34.209Z,8.80
2023-04-16T01:37:00.869Z,8.70
2023-04-16T01:39:27.607Z,8.80
2023-04-16T01:41:54.219Z,8.80
2023-04-16T01:44:21.760Z,8.80
2023-04-16T01:46:48.676Z,8.80
2023-04-16T01:49:15.886Z,8.70
2023-04-16T01:51:42.607Z,8.80
2023-04-16T01:54:09.353Z,8.70
2023-04-16T01:56:35.986Z,8.70
2023-04-16T01:59:02.628Z,8.70
2023-04-16T02:01:29.661Z,8.70
2023-04-16T02:03:57.564Z,8.70
2023-04-16T02:06:24.317Z,8.70
2023-04-16T02:08:51.207Z,8.70
2023-04-16T02:11:17.850Z,8.70
2023-04-16T02:13:44.511Z,8.70
2023-04-16T02:16:11.352Z,8.80
2023-04-16T02:18:38.001Z,8.70
2023-04-16T02:21:06.475Z,8.80
2023-04-16T02:23:33.246Z,8.80
2023-04-16T02:26:01.005Z,8.80
2023-04-16T02:28:27.583Z,8.80
2023-04-16T02:30:54.356Z,8.80
2023-04-16T02:33:21.181Z,8.80
2023-04-16T02:35:48.636Z,8.80
2023-04-16T02:38:15.348Z,8.80
2023-04-16T02:40:42.032Z,8.80
2023-04-16T02:43:08.596Z,8.70
2023-04-16T02:45:35.332Z,8.70
2023-04-16T02:48:02.141Z,8.70
2023-04-16T02:50:28.832Z,8.80
2023-04-16T02:52:55.526Z,8.80
2023-04-16T02:55:22.163Z,8.80
2023-04-16T02:57:48.783Z,8.70
2023-04-16T03:00:15.528Z,8.70
2023-04-16T03:02:42.654Z,8.80
2023-04-16T03:05:09.627Z,8.80
2023-04-16T03:07:36.256Z,8.80
2023-04-16T03:10:02.883Z,8.80
2023-04-16T03:12:29.504Z,8.80
2023-04-16T03:14:56.226Z,8.80
2023-04-16T03:17:22.851Z,8.80
2023-04-16T03:19:50.788Z,8.80
2023-04-16T03:22:17.825Z,8.80
2023-04-16T03:24:44.454Z,8.80
2023-04-16T03:27:11.029Z,8.80
2023-04-16T03:29:38.600Z,8.70
2023-04-16T03:32:05.688Z,8.80
2023-04-16T03:34:32.592Z,8.80
2023-04-16T03:36:59.326Z,8.80
2023-04-16T03:39:26.265Z,8.80
2023-04-16T03:41:52.905Z,8.80
2023-04-16T03:44:19.517Z,8.80
2023-04-16T03:46:46.151Z,8.80
2023-04-16T03:49:12.769Z,8.80
2023-04-16T03:51:39.412Z,8.90
2023-04-16T03:54:05.999Z,8.70
2023-04-16T03:56:32.752Z,8.80
2023-04-16T03:58:59.344Z,8.80
2023-04-16T04:01:25.969Z,8.80
2023-04-16T04:03:52.901Z,8.80
2023-04-16T04:06:19.556Z,8.80
2023-04-16T04:08:46.146Z,8.80
2023-04-16T04:11:12.748Z,8.80
2023-04-16T04:13:39.344Z,8.80
2023-04-16T04:16:06.601Z,8.80
2023-04-16T04:18:33.286Z,8.80
2023-04-16T04:20:59.906Z,8.90
2023-04-16T04:23:26.504Z,8.80
2023-04-16T04:25:53.113Z,8.80
2023-04-16T04:28:19.835Z,8.70
2023-04-16T04:30:46.396Z,8.80
2023-04-16T04:33:13.070Z,8.80
2023-04-16T04:35:39.705Z,8.80
2023-04-16T04:38:06.629Z,8.80
2023-04-16T04:40:33.444Z,8.80
2023-04-16T04:43:00.058Z,8.80
2023-04-16T04:45:26.898Z,8.80
2023-04-16T04:47:53.825Z,8.90
2023-04-16T04:50:21.690Z,8.80
2023-04-16T04:52:48.316Z,8.80
2023-04-16T04:55:16.003Z,8.80
2023-04-16T04:57:42.705Z,8.80
2023-04-16T05:00:09.818Z,8.80
2023-04-16T05:02:36.611Z,8.80
2023-04-16T05:05:04.060Z,8.80
2023-04-16T05:07:30.935Z,8.80
2023-04-16T05:09:57.539Z,8.80
2023-04-16T05:12:24.227Z,8.80
2023-04-16T05:14:50.836Z,8.80
2023-04-16T05:17:17.553Z,8.80
2023-04-16T05:19:44.186Z,8.80
2023-04-16T05:22:10.820Z,8.80
2023-04-16T05:24:37.484Z,8.80
2023-04-16T05:27:04.166Z,8.80
2023-04-16T05:29:30.799Z,8.80
2023-04-16T05:31:57.462Z,8.80
2023-04-16T05:34:24.094Z,8.90
2023-04-16T05:36:50.755Z,8.90
2023-04-16T05:39:18.402Z,8.90
2023-04-16T05:41:45.019Z,8.70
2023-04-16T05:44:11.695Z,8.80
2023-04-16T05:46:38.441Z,8.80
2023-04-16T05:49:05.400Z,8.80
2023-04-16T05:51:32.336Z,8.80
2023-04-16T05:53:59.014Z,8.80
2023-04-16T05:56:26.015Z,8.80
2023-04-16T05:58:52.578Z,8.90
2023-04-16T06:01:19.212Z,8.90
2023-04-16T06:03:46.054Z,8.90
2023-04-16T06:06:12.936Z,8.90
2023-04-16T06:08:39.542Z,8.90
2023-04-16T06:11:06.594Z,8.90
2023-04-16T06:13:33.235Z,8.90
2023-04-16T06:15:59.879Z,8.90
2023-04-16T06:18:26.585Z,8.90
2023-04-16T06:20:53.284Z,8.90
2023-04-16T06:23:20.054Z,9.00
2023-04-16T06:25:46.673Z,8.90
2023-04-16T06:28:13.279Z,9.00
2023-04-16T06:30:39.991Z,8.90
2023-04-16T06:33:06.809Z,8.90
2023-04-16T06:35:33.445Z,8.90
2023-04-16T06:38:00.067Z,9.00
2023-04-16T06:40:26.848Z,9.00
2023-04-16T06:42:54.142Z,9.00
2023-04-16T06:45:20.771Z,9.00
2023-04-16T06:47:48.158Z,9.10
2023-04-16T06:50:15.401Z,9.10
2023-04-16T06:52:42.139Z,9.10
2023-04-16T06:55:09.772Z,9.10
2023-04-16T06:57:37.513Z,9.10
2023-04-16T07:00:07.463Z,9.10
2023-04-16T07:02:34.450Z,9.10
2023-04-16T07:05:01.275Z,8.90
2023-04-16T07:07:27.946Z,9.00
2023-04-16T07:09:54.874Z,9.00
2023-04-16T07:12:22.809Z,9.00
2023-04-16T07:14:49.868Z,9.10
2023-04-16T07:17:16.568Z,9.10
2023-04-16T07:19:43.208Z,9.10
2023-04-16T07:22:09.976Z,9.10
2023-04-16T07:24:36.558Z,9.20
2023-04-16T07:27:03.238Z,9.20
2023-04-16T07:29:29.925Z,9.20
2023-04-16T07:31:57.586Z,9.20
2023-04-16T07:34:24.388Z,9.20
2023-04-16T07:36:51.122Z,9.20
2023-04-16T07:39:17.732Z,9.20
2023-04-16T07:41:44.348Z,9.30
2023-04-16T07:44:11.156Z,9.30
2023-04-16T07:46:46.316Z,9.30
2023-04-16T07:49:13.830Z,9.30
2023-04-16T07:51:40.508Z,9.30
2023-04-16T07:54:07.168Z,9.30
2023-04-16T07:56:33.811Z,9.40
2023-04-16T07:59:07.892Z,9.40
2023-04-16T08:01:45.705Z,9.40
2023-04-16T08:04:12.619Z,9.40
2023-04-16T08:06:39.457Z,9.40
2023-04-16T08:09:06.429Z,9.40
2023-04-16T08:11:33.164Z,9.40
2023-04-16T08:13:59.785Z,9.40
2023-04-16T08:16:26.457Z,9.40
2023-04-16T08:18:53.102Z,9.50
2023-04-16T08:21:19.748Z,9.40
2023-04-16T08:23:46.435Z,9.40
2023-04-16T08:26:13.271Z,9.40
2023-04-16T08:28:39.909Z,9.40
2023-04-16T08:31:06.750Z,9.50
2023-04-16T08:33:33.499Z,9.50
2023-04-16T08:36:00.201Z,9.60
2023-04-16T08:38:27.225Z,9.60
2023-04-16T08:40:56.510Z,9.60
2023-04-16T08:43:24.925Z,9.70
2023-04-16T08:45:57.468Z,9.70
2023-04-16T08:48:24.898Z,9.70
2023-04-16T08:50:54.982Z,9.80
2023-04-16T08:53:33.177Z,9.80
2023-04-16T08:56:04.018Z,9.80
2023-04-16T08:58:34.535Z,9.80
2023-04-16T09:01:03.922Z,9.80
2023-04-16T09:03:34.954Z,9.90
2023-04-16T09:06:04.928Z,9.90
2023-04-16T09:08:32.191Z,9.80
2023-04-16T09:11:00.031Z,9.90
2023-04-16T09:13:27.043Z,9.90
2023-04-16T09:15:54.513Z,10.00
2023-04-16T09:18:21.372Z,10.00
2023-04-16T09:20:49.635Z,10.00
2023-04-16T09:23:16.376Z,10.00
2023-04-16T09:25:43.027Z,10.00
2023-04-16T09:28:10.714Z,10.00
2023-04-16T09:30:37.639Z,10.10
2023-04-16T09:33:24.332Z,10.00
2023-04-16T09:35:54.218Z,9.90
2023-04-16T09:38:21.289Z,10.00
2023-04-16T09:40:48.132Z,10.00
2023-04-16T09:43:17.469Z,10.10
2023-04-16T09:45:55.170Z,10.10
2023-04-16T09:48:30.020Z,10.10
2023-04-16T09:50:57.033Z,10.00
2023-04-16T09:53:26.043Z,10.10
2023-04-16T09:55:56.525Z,10.10
2023-04-16T09:58:24.630Z,10.10
2023-04-16T10:01:12.125Z,10.10
2023-04-16T10:03:41.017Z,10.10
2023-04-16T10:06:19.604Z,10.10
2023-04-16T10:08:56.793Z,10.10
2023-04-16T10:11:25.885Z,10.10
2023-04-16T10:13:56.640Z,10.10
2023-04-16T10:16:23.835Z,10.20
2023-04-16T10:18:50.646Z,10.20
2023-04-16T10:21:20.063Z,10.20
2023-04-16T10:23:49.631Z,10.20
2023-04-16T10:26:20.434Z,10.20
2023-04-16T10:28:47.909Z,10.30
2023-04-16T10:31:20.146Z,10.30
2023-04-16T10:33:46.970Z,10.30
2023-04-16T10:36:17.575Z,10.40
2023-04-16T10:38:49.730Z,10.40
2023-04-16T10:41:22.895Z,10.50
2023-04-16T10:43:51.070Z,10.60
2023-04-16T10:46:31.475Z,10.60
2023-04-16T10:49:02.945Z,10.70
2023-04-16T10:51:35.871Z,10.70
2023-04-16T10:54:08.506Z,10.60
2023-04-16T10:56:37.502Z,10.80
2023-04-16T10:59:30.784Z,10.80
2023-04-16T11:02:01.537Z,10.80
2023-04-16T11:04:39.377Z,10.80
2023-04-16T11:07:14.199Z,10.90
2023-04-16T11:09:59.773Z,11.00
2023-04-16T11:12:29.687Z,11.00
2023-04-16T11:15:08.266Z,10.90
2023-04-16T11:17:52.976Z,11.00
2023-04-16T11:20:21.056Z,11.00
2023-04-16T11:22:52.665Z,11.00
2023-04-16T11:25:39.558Z,11.00
2023-04-16T11:28:07.253Z,11.10
2023-04-16T11:30:38.864Z,11.20
2023-04-16T11:33:11.495Z,11.20
2023-04-16T11:35:39.483Z,11.00
2023-04-16T11:38:07.213Z,11.00
2023-04-16T11:40:38.788Z,11.10
2023-04-16T11:43:14.912Z,11.10
2023-04-16T11:45:58.464Z,11.10
2023-04-16T11:48:25.256Z,11.20
2023-04-16T11:51:00.752Z,11.10
2023-04-16T11:53:28.026Z,11.10
2023-04-16T11:55:54.692Z,11.20
2023-04-16T11:58:22.373Z,11.30
2023-04-16T12:00:53.345Z,11.30
2023-04-16T12:06:20.864Z,11.30
2023-04-16T12:08:49.407Z,11.40
2023-04-16T12:11:16.446Z,11.40
2023-04-16T12:13:43.013Z,11.30
2023-04-16T12:16:25.155Z,11.50
2023-04-16T12:19:03.841Z,11.30
2023-04-16T12:21:51.059Z,11.30
2023-04-16T12:24:24.884Z,11.40
2023-04-16T12:27:02.956Z,11.60
2023-04-16T12:29:29.581Z,11.50
2023-04-16T12:31:56.493Z,11.60
2023-04-16T12:34:46.621Z,11.60
2023-04-16T12:37:12.935Z,11.70
2023-04-16T12:39:40.008Z,11.70
2023-04-16T12:42:09.757Z,11.90
2023-04-16T12:44:36.802Z,11.80
2023-04-16T12:47:05.457Z,11.90
2023-04-16T12:49:32.142Z,12.00
2023-04-16T12:52:00.229Z,11.90
2023-04-16T12:54:29.748Z,12.00
2023-04-16T12:56:56.817Z,12.00
2023-04-16T12:59:24.118Z,12.10
2023-04-16T13:01:50.950Z,11.90
2023-04-16T13:04:21.525Z,12.00
2023-04-16T13:06:49.353Z,11.90
2023-04-16T13:09:16.073Z,12.20
2023-04-16T13:11:45.030Z,12.10
2023-04-16T13:14:12.421Z,12.10
2023-04-16T13:16:39.056Z,12.10
2023-04-16T13:19:05.841Z,12.20
2023-04-16T13:21:34.620Z,12.20
2023-04-16T13:24:02.867Z,12.20
2023-04-16T13:26:29.642Z,12.10
2023-04-16T13:28:59.538Z,12.10
2023-04-16T13:31:26.577Z,12.20
2023-04-16T13:33:54.597Z,12.20
2023-04-16T13:36:21.199Z,12.30
2023-04-16T13:38:48.358Z,12.40
2023-04-16T13:41:14.988Z,12.30
2023-04-16T13:43:41.619Z,12.40
2023-04-16T13:46:08.342Z,12.30
2023-04-16T13:48:35.226Z,12.40
2023-04-16T13:51:03.016Z,12.40
2023-04-16T13:53:29.601Z,12.40
2023-04-16T13:55:56.479Z,12.40
2023-04-16T13:58:23.109Z,12.40
2023-04-16T14:00:49.761Z,12.20
2023-04-16T14:03:16.781Z,12.20
2023-04-16T14:05:46.595Z,12.20
2023-04-16T14:08:17.336Z,12.20
2023-04-16T14:10:44.061Z,12.30
2023-04-16T14:13:11.075Z,12.30
2023-04-16T14:15:37.817Z,12.40
2023-04-16T14:18:04.725Z,12.40
2023-04-16T14:20:31.517Z,12.40
2023-04-16T14:22:58.126Z,12.40
2023-04-16T14:25:24.863Z,12.40
2023-04-16T14:27:51.525Z,12.50
2023-04-16T14:30:18.584Z,12.40
2023-04-16T14:32:45.248Z,12.50
2023-04-16T14:35:12.123Z,12.50
2023-04-16T14:37:39.031Z,12.40
2023-04-16T14:40:08.701Z,12.40
2023-04-16T14:42:39.454Z,12.50
2023-04-16T14:45:07.097Z,12.50
2023-04-16T14:47:34.833Z,12.50
2023-04-16T14:50:02.021Z,12.50
2023-04-16T14:52:28.998Z,12.60
2023-04-16T14:54:55.863Z,12.60
2023-04-16T14:57:22.724Z,12.60
2023-04-16T14:59:49.467Z,12.60
2023-04-16T15:02:16.513Z,12.60
2023-04-16T15:04:43.282Z,12.70
2023-04-16T15:07:11.634Z,12.50
2023-04-16T15:09:38.275Z,12.70
2023-04-16T15:12:05.074Z,12.70
2023-04-16T15:14:31.698Z,12.60
2023-04-16T15:16:58.663Z,12.50
2023-04-16T15:19:26.005Z,12.40
2023-04-16T15:21:52.732Z,12.50
2023-04-16T15:24:19.507Z,12.40
2023-04-16T15:26:47.564Z,12.40
2023-04-16T15:29:14.571Z,12.40
2023-04-16T15:31:41.183Z,12.40
2023-04-16T15:34:07.857Z,12.50
2023-04-16T15:36:34.747Z,12.60
2023-04-16T15:39:01.396Z,12.70
2023-04-16T15:41:29.821Z,12.50
2023-04-16T15:43:56.371Z,12.40
2023-04-16T15:46:23.143Z,12.50
2023-04-16T15:48:49.849Z,12.50
2023-04-16T15:51:16.718Z,12.60
2023-04-16T15:53:45.446Z,12.50
2023-04-16T15:56:12.178Z,12.60
2023-04-16T15:58:38.906Z,12.60
2023-04-16T16:01:05.681Z,12.60
2023-04-16T16:03:33.992Z,12.50
2023-04-16T16:06:04.193Z,12.40
2023-04-16T16:08:38.405Z,12.40
2023-04-16T16:11:05.266Z,12.40
2023-04-16T16:13:32.095Z,12.40
2023-04-16T16:15:58.694Z,12.50
2023-04-16T16:18:25.585Z,12.50
2023-04-16T16:20:57.097Z,12.50
2023-04-16T16:23:23.788Z,12.50
2023-04-16T16:25:51.907Z,12.50
2023-04-16T16:28:18.566Z,12.40
2023-04-16T16:30:52.154Z,12.40
2023-04-16T16:33:22.029Z,12.50
2023-04-16T16:35:48.688Z,12.50
2023-04-16T16:38:15.359Z,12.30
2023-04-16T16:40:41.955Z,12.30
2023-04-16T16:43:09.026Z,12.20
2023-04-16T16:45:36.110Z,12.30
2023-04-16T16:48:04.429Z,12.40
2023-04-16T16:50:32.583Z,12.40
2023-04-16T16:53:00.593Z,12.50
2023-04-16T16:55:27.328Z,12.60
2023-04-16T16:57:54.432Z,12.50
2023-04-16T17:00:21.855Z,12.50
2023-04-16T17:02:51.191Z,12.40
2023-04-16T17:05:18.101Z,12.40
2023-04-16T17:07:44.744Z,12.40
2023-04-16T17:10:14.965Z,12.20
2023-04-16T17:12:41.725Z,12.30
2023-04-16T17:15:08.981Z,12.20
2023-04-16T17:17:35.944Z,12.20
2023-04-16T17:20:08.744Z,12.10
2023-04-16T17:22:36.051Z,12.20
2023-04-16T17:25:03.796Z,12.20
2023-04-16T17:27:34.184Z,12.10
2023-04-16T17:30:01.824Z,12.00
2023-04-16T17:32:29.843Z,12.00
2023-04-16T17:34:56.653Z,12.00
2023-04-16T17:37:23.570Z,12.00
2023-04-16T17:39:51.146Z,12.00
2023-04-16T17:42:18.076Z,12.00
2023-04-16T17:44:44.962Z,11.90
2023-04-16T17:47:11.754Z,11.80
2023-04-16T17:49:38.408Z,11.90
2023-04-16T17:52:05.111Z,11.90
2023-04-16T17:54:31.948Z,11.80
2023-04-16T17:56:59.040Z,11.60
2023-04-16T17:59:25.848Z,11.70
2023-04-16T18:01:52.615Z,11.60
2023-04-16T18:04:19.634Z,11.70
2023-04-16T18:06:46.626Z,11.50
2023-04-16T18:09:14.290Z,11.50
2023-04-16T18:11:41.184Z,11.50
2023-04-16T18:14:11.504Z,11.60
2023-04-16T18:16:38.396Z,11.50
2023-04-16T18:19:05.611Z,11.40
2023-04-16T18:21:32.247Z,11.40
2023-04-16T18:24:01.219Z,11.30
2023-04-16T18:26:29.969Z,11.40
2023-04-16T18:28:56.889Z,11.30
2023-04-16T18:31:24.983Z,11.20
2023-04-16T18:33:56.384Z,10.90
2023-04-16T18:36:26.641Z,11.10
2023-04-16T18:39:01.794Z,11.20
2023-04-16T18:41:30.064Z,11.10
2023-04-16T18:43:57.372Z,11.20
2023-04-16T18:46:24.176Z,11.10
2023-04-16T18:48:50.967Z,10.90
2023-04-16T18:51:17.693Z,10.80
2023-04-16T18:53:46.377Z,10.90
2023-04-16T18:56:13.846Z,10.80
2023-04-16T18:58:40.597Z,10.90
2023-04-16T19:01:12.397Z,10.90
2023-04-16T19:03:39.506Z,10.90
2023-04-16T19:06:06.671Z,10.70
2023-04-16T19:08:33.587Z,10.90
2023-04-16T19:11:00.292Z,10.80
2023-04-16T19:13:27.111Z,10.80
2023-04-16T19:16:00.960Z,10.80
2023-04-16T19:18:28.304Z,10.80
2023-04-16T19:21:01.669Z,10.80
2023-04-16T19:23:28.790Z,10.70
2023-04-16T19:25:56.882Z,10.70
2023-04-16T19:28:34.513Z,10.60
2023-04-16T19:31:01.645Z,10.40
2023-04-16T19:33:28.294Z,10.50
2023-04-16T19:35:54.988Z,10.40
2023-04-16T19:38:21.608Z,10.50
2023-04-16T19:40:48.848Z,10.50
2023-04-16T19:43:15.658Z,10.40
2023-04-16T19:45:43.580Z,10.50
2023-04-16T19:48:10.568Z,10.40
2023-04-16T19:50:41.173Z,10.30
2023-04-16T19:53:08.655Z,10.30
2023-04-16T19:55:35.404Z,10.30
2023-04-16T19:58:06.412Z,10.40
2023-04-16T20:00:34.583Z,10.40
2023-04-16T20:03:01.355Z,10.30
2023-04-16T20:05:28.499Z,10.30
2023-04-16T20:07:56.032Z,10.30
2023-04-16T20:10:23.605Z,10.20
2023-04-16T20:12:50.799Z,10.20
2023-04-16T20:15:18.022Z,10.30
2023-04-16T20:17:44.874Z,10.30
2023-04-16T20:20:11.811Z,10.30
2023-04-16T20:22:38.914Z,10.30
2023-04-16T20:25:06.487Z,10.20
2023-04-16T20:27:34.519Z,10.20
2023-04-16T20:30:01.800Z,10.20
2023-04-16T20:32:28.531Z,10.10
2023-04-16T20:34:55.676Z,10.10
2023-04-16T20:37:22.515Z,10.00
2023-04-16T20:39:50.198Z,10.00
2023-04-16T20:42:16.923Z,9.90
2023-04-16T20:44:50.568Z,9.80
2023-04-16T20:47:17.427Z,9.80
2023-04-16T20:49:47.818Z,9.80
2023-04-16T20:52:14.851Z,9.80
2023-04-16T20:54:41.505Z,9.90
2023-04-16T20:57:08.336Z,9.90
2023-04-16T20:59:36.218Z,10.00
2023-04-16T21:02:03.127Z,9.90
2023-04-16T21:04:29.918Z,9.90
2023-04-16T21:06:56.667Z,9.90
2023-04-16T21:09:23.631Z,9.80
2023-04-16T21:11:50.315Z,9.80
2023-04-16T21:14:16.935Z,9.70
2023-04-16T21:16:43.635Z,9.60
2023-04-16T21:19:10.416Z,9.60
2023-04-16T21:21:38.213Z,9.60
2023-04-16T21:24:05.374Z,9.70
2023-04-16T21:26:31.991Z,9.60
2023-04-16T21:28:58.817Z,9.60
2023-04-16T21:31:25.466Z,9.70
2023-04-16T21:33:52.204Z,9.60
2023-04-16T21:36:18.834Z,9.60
2023-04-16T21:38:45.536Z,9.50
2023-04-16T21:41:12.118Z,9.50
2023-04-16T21:43:38.718Z,9.60
2023-04-16T21:46:05.438Z,9.70
2023-04-16T21:48:32.062Z,9.80
2023-04-16T21:51:06.242Z,9.60
2023-04-16T21:53:33.857Z,9.60
2023-04-16T21:56:00.683Z,9.60
2023-04-16T21:58:27.422Z,9.50
2023-04-16T22:00:54.356Z,9.50
2023-04-16T22:03:28.316Z,9.50
2023-04-16T22:06:00.878Z,9.50
2023-04-16T22:08:29.170Z,9.60
2023-04-16T22:11:00.021Z,9.60
2023-04-16T22:13:28.031Z,9.60
2023-04-16T22:15:55.474Z,9.60
2023-04-16T22:18:25.298Z,9.50
2023-04-16T22:20:54.674Z,9.40
2023-04-16T22:23:25.460Z,9.60
2023-04-16T22:25:55.198Z,9.50
2023-04-16T22:28:21.978Z,9.50
2023-04-16T22:30:48.640Z,9.50
2023-04-16T22:33:15.565Z,9.40
2023-04-16T22:35:42.282Z,9.30
2023-04-16T22:38:08.916Z,9.30
2023-04-16T22:40:35.776Z,9.30
2023-04-16T22:43:02.393Z,9.30
2023-04-16T22:45:29.518Z,9.30
2023-04-16T22:47:56.158Z,9.30
2023-04-16T22:50:23.160Z,9.30
2023-04-16T22:52:49.866Z,9.30
2023-04-16T22:55:16.753Z,9.30
2023-04-16T22:57:43.420Z,9.30
2023-04-16T23:00:17.573Z,9.40
2023-04-16T23:02:44.858Z,9.40
2023-04-16T23:05:11.868Z,9.40
2023-04-16T23:07:38.765Z,9.40
2023-04-16T23:10:06.263Z,9.40
2023-04-16T23:12:32.904Z,9.40
2023-04-16T23:15:00.604Z,9.40
2023-04-16T23:17:28.045Z,9.40
2023-04-16T23:19:54.823Z,9.40
2023-04-16T23:22:21.451Z,9.40
2023-04-16T23:24:48.038Z,9.40
2023-04-16T23:27:14.598Z,9.40
2023-04-16T23:29:41.226Z,9.40
2023-04-16T23:32:07.947Z,9.40
2023-04-16T23:34:34.669Z,9.40
2023-04-16T23:37:01.390Z,9.40
2023-04-16T23:39:27.977Z,9.20
2023-04-16T23:41:54.570Z,9.20
2023-04-16T23:44:21.323Z,9.20
2023-04-16T23:46:47.991Z,9.10
2023-04-16T23:49:14.675Z,9.10
2023-04-16T23:51:41.243Z,9.10
2023-04-16T23:54:08.017Z,9.10
2023-04-16T23:56:34.650Z,9.10
2023-04-16T23:59:01.242Z,9.10
